sensor_id;sensor_type;location;lat;lon;timestamp;pressure;altitude;pressure_sealevel;temperature;humidity
32324;BME280;25666;44.350;9.222;2024-03-22T00:00:20;102136.16;;;9.65;100.00
32324;BME280;25666;44.350;9.222;2024-03-22T00:02:46;102131.63;;;9.69;100.00
32324;BME280;25666;44.350;9.222;2024-03-22T00:05:15;102136.00;;;9.84;100.00
32324;BME280;25666;44.350;9.222;2024-03-22T00:07:42;102131.78;;;9.87;100.00
32324;BME280;25666;44.350;9.222;2024-03-22T00:10:07;102139.19;;;9.91;100.00
32324;BME280;25666;44.350;9.222;2024-03-22T00:12:32;102137.69;;;9.72;100.00
32324;BME280;25666;44.350;9.222;2024-03-22T00:14:58;102135.34;;;9.51;100.00
32324;BME280;25666;44.350;9.222;2024-03-22T00:17:24;102125.84;;;9.52;100.00
32324;BME280;25666;44.350;9.222;2024-03-22T00:19:49;102129.16;;;9.54;100.00
32324;BME280;25666;44.350;9.222;2024-03-22T00:22:15;102128.75;;;9.47;100.00
32324;BME280;25666;44.350;9.222;2024-03-22T00:24:41;102128.97;;;9.51;100.00
32324;BME280;25666;44.350;9.222;2024-03-22T00:27:06;102132.88;;;9.36;100.00
32324;BME280;25666;44.350;9.222;2024-03-22T00:29:32;102135.44;;;9.46;100.00
32324;BME280;25666;44.350;9.222;2024-03-22T00:31:58;102132.66;;;9.46;100.00
32324;BME280;25666;44.350;9.222;2024-03-22T00:34:26;102134.72;;;9.41;100.00
32324;BME280;25666;44.350;9.222;2024-03-22T00:36:51;102134.72;;;9.41;100.00
32324;BME280;25666;44.350;9.222;2024-03-22T00:39:17;102133.59;;;9.42;100.00
32324;BME280;25666;44.350;9.222;2024-03-22T00:41:43;102138.63;;;9.40;100.00
32324;BME280;25666;44.350;9.222;2024-03-22T00:44:08;102137.19;;;9.42;100.00
32324;BME280;25666;44.350;9.222;2024-03-22T00:46:33;102141.09;;;9.41;100.00
32324;BME280;25666;44.350;9.222;2024-03-22T00:49:03;102133.50;;;9.33;100.00
32324;BME280;25666;44.350;9.222;2024-03-22T00:51:29;102134.13;;;9.30;100.00
32324;BME280;25666;44.350;9.222;2024-03-22T00:53:54;102136.06;;;9.30;100.00
32324;BME280;25666;44.350;9.222;2024-03-22T00:56:20;102131.63;;;9.29;100.00
32324;BME280;25666;44.350;9.222;2024-03-22T00:58:45;102136.91;;;9.30;100.00
32324;BME280;25666;44.350;9.222;2024-03-22T01:01:11;102132.97;;;9.31;100.00
32324;BME280;25666;44.350;9.222;2024-03-22T01:03:36;102129.47;;;9.26;100.00
32324;BME280;25666;44.350;9.222;2024-03-22T01:06:02;102121.88;;;9.18;100.00
32324;BME280;25666;44.350;9.222;2024-03-22T01:08:28;102128.03;;;9.14;100.00
32324;BME280;25666;44.350;9.222;2024-03-22T01:10:53;102135.72;;;9.04;100.00
32324;BME280;25666;44.350;9.222;2024-03-22T01:13:19;102119.97;;;8.99;100.00
32324;BME280;25666;44.350;9.222;2024-03-22T01:15:44;102125.00;;;8.97;100.00
32324;BME280;25666;44.350;9.222;2024-03-22T01:18:12;102126.06;;;9.01;100.00
32324;BME280;25666;44.350;9.222;2024-03-22T01:20:37;102128.00;;;9.01;100.00
32324;BME280;25666;44.350;9.222;2024-03-22T01:23:03;102129.13;;;9.00;100.00
32324;BME280;25666;44.350;9.222;2024-03-22T01:25:32;102134.38;;;9.01;100.00
32324;BME280;25666;44.350;9.222;2024-03-22T01:27:58;102140.34;;;9.08;100.00
32324;BME280;25666;44.350;9.222;2024-03-22T01:30:24;102135.63;;;9.09;100.00
32324;BME280;25666;44.350;9.222;2024-03-22T01:32:54;102125.91;;;8.93;100.00
32324;BME280;25666;44.350;9.222;2024-03-22T01:35:19;102125.41;;;8.91;100.00
32324;BME280;25666;44.350;9.222;2024-03-22T01:37:45;102125.72;;;8.89;100.00
32324;BME280;25666;44.350;9.222;2024-03-22T01:40:11;102123.03;;;8.84;100.00
32324;BME280;25666;44.350;9.222;2024-03-22T01:42:39;102126.84;;;8.88;100.00
32324;BME280;25666;44.350;9.222;2024-03-22T01:45:05;102116.56;;;8.89;100.00
32324;BME280;25666;44.350;9.222;2024-03-22T01:47:30;102118.63;;;8.97;100.00
32324;BME280;25666;44.350;9.222;2024-03-22T01:49:57;102116.69;;;8.97;100.00
32324;BME280;25666;44.350;9.222;2024-03-22T01:52:23;102118.63;;;8.97;100.00
32324;BME280;25666;44.350;9.222;2024-03-22T01:54:49;102122.94;;;8.89;100.00
32324;BME280;25666;44.350;9.222;2024-03-22T01:57:15;102113.78;;;8.89;100.00
32324;BME280;25666;44.350;9.222;2024-03-22T01:59:41;102122.19;;;8.84;100.00
32324;BME280;25666;44.350;9.222;2024-03-22T02:02:06;102113.47;;;8.77;100.00
32324;BME280;25666;44.350;9.222;2024-03-22T02:04:32;102120.75;;;8.73;100.00
32324;BME280;25666;44.350;9.222;2024-03-22T02:06:57;102126.81;;;8.75;100.00
32324;BME280;25666;44.350;9.222;2024-03-22T02:09:23;102124.03;;;8.75;100.00
32324;BME280;25666;44.350;9.222;2024-03-22T02:11:50;102121.97;;;8.80;100.00
32324;BME280;25666;44.350;9.222;2024-03-22T02:14:15;102112.03;;;8.93;100.00
32324;BME280;25666;44.350;9.222;2024-03-22T02:16:41;102109.97;;;8.85;100.00
32324;BME280;25666;44.350;9.222;2024-03-22T02:19:07;102113.66;;;8.80;100.00
32324;BME280;25666;44.350;9.222;2024-03-22T02:21:34;102113.41;;;8.95;100.00
32324;BME280;25666;44.350;9.222;2024-03-22T02:23:59;102117.25;;;8.81;100.00
32324;BME280;25666;44.350;9.222;2024-03-22T02:26:25;102118.47;;;8.75;100.00
32324;BME280;25666;44.350;9.222;2024-03-22T02:28:50;102110.25;;;8.70;100.00
32324;BME280;25666;44.350;9.222;2024-03-22T02:31:16;102119.81;;;8.77;100.00
32324;BME280;25666;44.350;9.222;2024-03-22T02:33:41;102119.69;;;8.69;100.00
32324;BME280;25666;44.350;9.222;2024-03-22T02:36:07;102114.25;;;8.77;100.00
32324;BME280;25666;44.350;9.222;2024-03-22T02:38:32;102108.31;;;8.84;100.00
32324;BME280;25666;44.350;9.222;2024-03-22T02:40:58;102114.19;;;8.82;100.00
32324;BME280;25666;44.350;9.222;2024-03-22T02:43:24;102115.69;;;8.75;100.00
32324;BME280;25666;44.350;9.222;2024-03-22T02:45:49;102114.38;;;8.72;100.00
32324;BME280;25666;44.350;9.222;2024-03-22T02:48:15;102107.53;;;8.65;100.00
32324;BME280;25666;44.350;9.222;2024-03-22T02:50:41;102121.31;;;8.56;100.00
32324;BME280;25666;44.350;9.222;2024-03-22T02:53:07;102113.94;;;8.65;100.00
32324;BME280;25666;44.350;9.222;2024-03-22T02:55:39;102105.22;;;8.72;100.00
32324;BME280;25666;44.350;9.222;2024-03-22T02:58:06;102109.31;;;8.60;100.00
32324;BME280;25666;44.350;9.222;2024-03-22T03:00:36;102110.63;;;8.63;100.00
32324;BME280;25666;44.350;9.222;2024-03-22T03:03:03;102112.94;;;8.75;100.00
32324;BME280;25666;44.350;9.222;2024-03-22T03:05:28;102113.09;;;8.65;100.00
32324;BME280;25666;44.350;9.222;2024-03-22T03:07:54;102115.16;;;8.59;100.00
32324;BME280;25666;44.350;9.222;2024-03-22T03:10:20;102109.47;;;8.50;100.00
32324;BME280;25666;44.350;9.222;2024-03-22T03:12:45;102113.19;;;8.59;100.00
32324;BME280;25666;44.350;9.222;2024-03-22T03:15:11;102119.56;;;8.60;100.00
32324;BME280;25666;44.350;9.222;2024-03-22T03:17:37;102119.53;;;8.79;100.00
32324;BME280;25666;44.350;9.222;2024-03-22T03:20:03;102116.66;;;8.84;100.00
32324;BME280;25666;44.350;9.222;2024-03-22T03:22:33;102121.69;;;8.82;100.00
32324;BME280;25666;44.350;9.222;2024-03-22T03:25:00;102119.97;;;8.86;100.00
32324;BME280;25666;44.350;9.222;2024-03-22T03:27:25;102111.09;;;8.84;100.00
32324;BME280;25666;44.350;9.222;2024-03-22T03:29:51;102120.47;;;8.88;100.00
32324;BME280;25666;44.350;9.222;2024-03-22T03:32:16;102118.00;;;8.86;100.00
32324;BME280;25666;44.350;9.222;2024-03-22T03:34:42;102117.19;;;8.86;100.00
32324;BME280;25666;44.350;9.222;2024-03-22T03:37:07;102121.56;;;8.73;100.00
32324;BME280;25666;44.350;9.222;2024-03-22T03:39:33;102119.31;;;8.75;100.00
32324;BME280;25666;44.350;9.222;2024-03-22T03:41:58;102107.91;;;8.77;100.00
32324;BME280;25666;44.350;9.222;2024-03-22T03:44:24;102110.97;;;8.75;100.00
32324;BME280;25666;44.350;9.222;2024-03-22T03:46:49;102110.75;;;8.72;100.00
32324;BME280;25666;44.350;9.222;2024-03-22T03:49:15;102114.06;;;8.74;100.00
32324;BME280;25666;44.350;9.222;2024-03-22T03:51:40;102114.84;;;8.60;100.00
32324;BME280;25666;44.350;9.222;2024-03-22T03:54:06;102116.91;;;8.69;100.00
32324;BME280;25666;44.350;9.222;2024-03-22T03:56:31;102108.72;;;8.77;100.00
32324;BME280;25666;44.350;9.222;2024-03-22T03:58:57;102117.63;;;8.60;100.00
32324;BME280;25666;44.350;9.222;2024-03-22T04:01:22;102111.97;;;8.52;100.00
32324;BME280;25666;44.350;9.222;2024-03-22T04:03:48;102109.63;;;8.40;100.00
32324;BME280;25666;44.350;9.222;2024-03-22T04:06:14;102114.13;;;8.55;100.00
32324;BME280;25666;44.350;9.222;2024-03-22T04:08:40;102113.91;;;8.51;100.00
32324;BME280;25666;44.350;9.222;2024-03-22T04:11:05;102118.69;;;8.46;100.00
32324;BME280;25666;44.350;9.222;2024-03-22T04:13:31;102117.50;;;8.33;100.00
32324;BME280;25666;44.350;9.222;2024-03-22T04:15:59;102112.25;;;8.50;100.00
32324;BME280;25666;44.350;9.222;2024-03-22T04:18:24;102122.56;;;8.64;100.00
32324;BME280;25666;44.350;9.222;2024-03-22T04:20:57;102112.53;;;8.68;100.00
32324;BME280;25666;44.350;9.222;2024-03-22T04:23:24;102121.53;;;8.59;100.00
32324;BME280;25666;44.350;9.222;2024-03-22T04:25:56;102115.78;;;8.37;100.00
32324;BME280;25666;44.350;9.222;2024-03-22T04:28:22;102122.69;;;8.40;100.00
32324;BME280;25666;44.350;9.222;2024-03-22T04:31:06;102118.88;;;8.17;100.00
32324;BME280;25666;44.350;9.222;2024-03-22T04:33:36;102121.66;;;8.17;100.00
32324;BME280;25666;44.350;9.222;2024-03-22T04:36:02;102120.38;;;8.28;100.00
32324;BME280;25666;44.350;9.222;2024-03-22T04:38:29;102116.78;;;8.28;100.00
32324;BME280;25666;44.350;9.222;2024-03-22T04:40:55;102126.16;;;8.32;100.00
32324;BME280;25666;44.350;9.222;2024-03-22T04:43:23;102116.84;;;8.41;100.00
32324;BME280;25666;44.350;9.222;2024-03-22T04:45:49;102119.09;;;8.39;100.00
32324;BME280;25666;44.350;9.222;2024-03-22T04:48:21;102122.88;;;8.30;100.00
32324;BME280;25666;44.350;9.222;2024-03-22T04:50:47;102131.22;;;8.25;100.00
32324;BME280;25666;44.350;9.222;2024-03-22T04:53:21;102134.38;;;8.18;100.00
32324;BME280;25666;44.350;9.222;2024-03-22T04:55:47;102140.69;;;8.24;100.00
32324;BME280;25666;44.350;9.222;2024-03-22T04:58:20;102134.91;;;8.20;100.00
32324;BME280;25666;44.350;9.222;2024-03-22T05:00:47;102124.56;;;8.26;100.00
32324;BME280;25666;44.350;9.222;2024-03-22T05:03:14;102136.03;;;8.19;100.00
32324;BME280;25666;44.350;9.222;2024-03-22T05:05:40;102128.53;;;8.20;100.00
32324;BME280;25666;44.350;9.222;2024-03-22T05:08:06;102131.19;;;8.30;100.00
32324;BME280;25666;44.350;9.222;2024-03-22T05:10:33;102144.47;;;8.09;100.00
32324;BME280;25666;44.350;9.222;2024-03-22T05:12:59;102139.78;;;8.28;100.00
32324;BME280;25666;44.350;9.222;2024-03-22T05:15:25;102142.69;;;8.18;100.00
32324;BME280;25666;44.350;9.222;2024-03-22T05:17:51;102135.91;;;8.29;100.00
32324;BME280;25666;44.350;9.222;2024-03-22T05:20:17;102129.78;;;8.27;100.00
32324;BME280;25666;44.350;9.222;2024-03-22T05:22:42;102128.44;;;8.25;100.00
32324;BME280;25666;44.350;9.222;2024-03-22T05:25:09;102130.09;;;8.26;100.00
32324;BME280;25666;44.350;9.222;2024-03-22T05:27:35;102128.44;;;8.25;100.00
32324;BME280;25666;44.350;9.222;2024-03-22T05:30:01;102130.38;;;8.24;100.00
32324;BME280;25666;44.350;9.222;2024-03-22T05:32:26;102128.22;;;8.21;100.00
32324;BME280;25666;44.350;9.222;2024-03-22T05:34:52;102134.53;;;8.27;100.00
32324;BME280;25666;44.350;9.222;2024-03-22T05:37:18;102139.03;;;8.23;100.00
32324;BME280;25666;44.350;9.222;2024-03-22T05:39:44;102138.94;;;8.46;100.00
32324;BME280;25666;44.350;9.222;2024-03-22T05:42:09;102133.09;;;8.48;100.00
32324;BME280;25666;44.350;9.222;2024-03-22T05:44:35;102137.69;;;8.39;100.00
32324;BME280;25666;44.350;9.222;2024-03-22T05:47:01;102140.38;;;8.44;100.00
32324;BME280;25666;44.350;9.222;2024-03-22T05:49:27;102141.16;;;8.63;100.00
32324;BME280;25666;44.350;9.222;2024-03-22T05:51:52;102143.94;;;8.63;100.00
32324;BME280;25666;44.350;9.222;2024-03-22T05:54:18;102136.88;;;8.71;100.00
32324;BME280;25666;44.350;9.222;2024-03-22T05:56:44;102136.56;;;8.72;100.00
32324;BME280;25666;44.350;9.222;2024-03-22T05:59:09;102135.44;;;8.73;100.00
32324;BME280;25666;44.350;9.222;2024-03-22T06:01:36;102132.28;;;8.80;100.00
32324;BME280;25666;44.350;9.222;2024-03-22T06:04:03;102131.47;;;8.79;100.00
32324;BME280;25666;44.350;9.222;2024-03-22T06:06:29;102134.31;;;10.46;100.00
32324;BME280;25666;44.350;9.222;2024-03-22T06:08:55;102123.25;;;12.38;100.00
32324;BME280;25666;44.350;9.222;2024-03-22T06:11:22;102108.38;;;13.73;100.00
32324;BME280;25666;44.350;9.222;2024-03-22T06:13:48;102120.31;;;14.53;100.00
32324;BME280;25666;44.350;9.222;2024-03-22T06:16:14;102113.75;;;15.63;100.00
32324;BME280;25666;44.350;9.222;2024-03-22T06:18:39;102106.06;;;15.72;100.00
32324;BME280;25666;44.350;9.222;2024-03-22T06:21:06;102113.97;;;14.77;100.00
32324;BME280;25666;44.350;9.222;2024-03-22T06:23:32;102115.28;;;14.91;100.00
32324;BME280;25666;44.350;9.222;2024-03-22T06:25:58;102113.97;;;15.94;100.00
32324;BME280;25666;44.350;9.222;2024-03-22T06:28:27;102111.41;;;16.97;100.00
32324;BME280;25666;44.350;9.222;2024-03-22T06:30:53;102117.88;;;17.44;100.00
32324;BME280;25666;44.350;9.222;2024-03-22T06:33:20;102108.16;;;18.27;100.00
32324;BME280;25666;44.350;9.222;2024-03-22T06:35:46;102113.53;;;18.32;100.00
32324;BME280;25666;44.350;9.222;2024-03-22T06:38:12;102118.69;;;18.11;100.00
32324;BME280;25666;44.350;9.222;2024-03-22T06:40:37;102116.88;;;17.37;100.00
32324;BME280;25666;44.350;9.222;2024-03-22T06:43:03;102123.16;;;17.61;100.00
32324;BME280;25666;44.350;9.222;2024-03-22T06:45:28;102129.44;;;18.05;100.00
32324;BME280;25666;44.350;9.222;2024-03-22T06:47:54;102131.16;;;19.06;100.00
32324;BME280;25666;44.350;9.222;2024-03-22T06:50:21;102129.44;;;19.43;100.00
32324;BME280;25666;44.350;9.222;2024-03-22T06:52:53;102132.59;;;19.87;100.00
32324;BME280;25666;44.350;9.222;2024-03-22T06:55:22;102126.97;;;19.64;100.00
32324;BME280;25666;44.350;9.222;2024-03-22T06:57:49;102121.16;;;20.06;100.00
32324;BME280;25666;44.350;9.222;2024-03-22T07:00:16;102124.03;;;19.35;100.00
32324;BME280;25666;44.350;9.222;2024-03-22T07:02:43;102130.66;;;18.43;100.00
32324;BME280;25666;44.350;9.222;2024-03-22T07:05:10;102116.19;;;16.96;100.00
32324;BME280;25666;44.350;9.222;2024-03-22T07:07:36;102115.47;;;16.16;100.00
32324;BME280;25666;44.350;9.222;2024-03-22T07:10:05;102119.63;;;15.58;100.00
32324;BME280;25666;44.350;9.222;2024-03-22T07:12:31;102122.41;;;15.46;100.00
32324;BME280;25666;44.350;9.222;2024-03-22T07:14:58;102121.69;;;15.25;100.00
32324;BME280;25666;44.350;9.222;2024-03-22T07:17:24;102119.91;;;15.08;100.00
32324;BME280;25666;44.350;9.222;2024-03-22T07:19:51;102130.13;;;14.92;100.00
32324;BME280;25666;44.350;9.222;2024-03-22T07:22:17;102126.72;;;14.54;100.00
32324;BME280;25666;44.350;9.222;2024-03-22T07:24:43;102131.84;;;14.52;100.00
32324;BME280;25666;44.350;9.222;2024-03-22T07:27:08;102136.44;;;14.35;100.00
32324;BME280;25666;44.350;9.222;2024-03-22T07:29:34;102139.38;;;14.18;100.00
32324;BME280;25666;44.350;9.222;2024-03-22T07:31:59;102136.28;;;14.11;100.00
32324;BME280;25666;44.350;9.222;2024-03-22T07:34:25;102137.66;;;14.05;100.00
32324;BME280;25666;44.350;9.222;2024-03-22T07:36:53;102135.53;;;14.02;100.00
32324;BME280;25666;44.350;9.222;2024-03-22T07:39:19;102145.06;;;14.01;100.00
32324;BME280;25666;44.350;9.222;2024-03-22T07:41:44;102144.03;;;13.85;100.00
32324;BME280;25666;44.350;9.222;2024-03-22T07:44:10;102137.47;;;13.81;100.00
32324;BME280;25666;44.350;9.222;2024-03-22T07:46:36;102142.72;;;13.82;100.00
32324;BME280;25666;44.350;9.222;2024-03-22T07:49:01;102146.50;;;13.86;100.00
32324;BME280;25666;44.350;9.222;2024-03-22T07:51:29;102149.09;;;13.91;100.00
32324;BME280;25666;44.350;9.222;2024-03-22T07:53:56;102145.44;;;14.00;100.00
32324;BME280;25666;44.350;9.222;2024-03-22T07:56:21;102141.13;;;14.02;100.00
32324;BME280;25666;44.350;9.222;2024-03-22T07:58:47;102147.63;;;14.15;100.00
32324;BME280;25666;44.350;9.222;2024-03-22T08:01:13;102150.75;;;14.13;100.00
32324;BME280;25666;44.350;9.222;2024-03-22T08:03:39;102148.91;;;14.17;100.00
32324;BME280;25666;44.350;9.222;2024-03-22T08:06:04;102147.69;;;14.27;100.00
32324;BME280;25666;44.350;9.222;2024-03-22T08:08:30;102153.38;;;14.39;100.00
32324;BME280;25666;44.350;9.222;2024-03-22T08:10:56;102150.03;;;14.45;100.00
32324;BME280;25666;44.350;9.222;2024-03-22T08:13:21;102146.00;;;14.55;100.00
32324;BME280;25666;44.350;9.222;2024-03-22T08:15:47;102142.97;;;14.60;100.00
32324;BME280;25666;44.350;9.222;2024-03-22T08:18:12;102152.81;;;14.66;100.00
32324;BME280;25666;44.350;9.222;2024-03-22T08:20:38;102156.25;;;14.72;100.00
32324;BME280;25666;44.350;9.222;2024-03-22T08:23:05;102147.97;;;14.75;100.00
32324;BME280;25666;44.350;9.222;2024-03-22T08:25:30;102146.50;;;14.69;100.00
32324;BME280;25666;44.350;9.222;2024-03-22T08:27:56;102148.63;;;14.72;100.00
32324;BME280;25666;44.350;9.222;2024-03-22T08:30:24;102143.19;;;14.88;100.00
32324;BME280;25666;44.350;9.222;2024-03-22T08:32:51;102152.28;;;14.85;100.00
32324;BME280;25666;44.350;9.222;2024-03-22T08:35:16;102149.59;;;14.76;100.00
32324;BME280;25666;44.350;9.222;2024-03-22T08:37:42;102157.16;;;14.76;100.00
32324;BME280;25666;44.350;9.222;2024-03-22T08:40:08;102147.88;;;14.84;100.00
32324;BME280;25666;44.350;9.222;2024-03-22T08:42:33;102150.09;;;14.78;100.00
32324;BME280;25666;44.350;9.222;2024-03-22T08:44:59;102146.91;;;14.80;100.00
32324;BME280;25666;44.350;9.222;2024-03-22T08:47:25;102150.88;;;14.79;100.00
32324;BME280;25666;44.350;9.222;2024-03-22T08:49:51;102146.09;;;14.79;100.00
32324;BME280;25666;44.350;9.222;2024-03-22T08:52:16;102140.34;;;14.76;100.00
32324;BME280;25666;44.350;9.222;2024-03-22T08:54:42;102137.69;;;14.79;100.00
32324;BME280;25666;44.350;9.222;2024-03-22T08:57:07;102133.63;;;14.89;100.00
32324;BME280;25666;44.350;9.222;2024-03-22T08:59:33;102127.56;;;14.87;100.00
32324;BME280;25666;44.350;9.222;2024-03-22T09:02:00;102128.13;;;14.80;100.00
32324;BME280;25666;44.350;9.222;2024-03-22T09:04:26;102129.28;;;14.79;100.00
32324;BME280;25666;44.350;9.222;2024-03-22T09:06:51;102129.78;;;14.81;100.00
32324;BME280;25666;44.350;9.222;2024-03-22T09:09:17;102142.63;;;14.94;100.00
32324;BME280;25666;44.350;9.222;2024-03-22T09:11:43;102134.19;;;15.15;100.00
32324;BME280;25666;44.350;9.222;2024-03-22T09:14:08;102132.53;;;15.26;100.00
32324;BME280;25666;44.350;9.222;2024-03-22T09:16:34;102127.31;;;15.37;100.00
32324;BME280;25666;44.350;9.222;2024-03-22T09:18:59;102129.31;;;15.48;100.00
32324;BME280;25666;44.350;9.222;2024-03-22T09:21:25;102126.88;;;15.59;100.00
32324;BME280;25666;44.350;9.222;2024-03-22T09:23:50;102136.00;;;15.56;100.00
32324;BME280;25666;44.350;9.222;2024-03-22T09:26:16;102133.09;;;15.52;100.00
32324;BME280;25666;44.350;9.222;2024-03-22T09:28:42;102121.41;;;15.50;100.00
32324;BME280;25666;44.350;9.222;2024-03-22T09:31:07;102117.41;;;15.51;100.00
32324;BME280;25666;44.350;9.222;2024-03-22T09:33:34;102115.66;;;15.59;100.00
32324;BME280;25666;44.350;9.222;2024-03-22T09:35:59;102114.94;;;15.62;100.00
32324;BME280;25666;44.350;9.222;2024-03-22T09:38:25;102114.38;;;15.57;100.00
32324;BME280;25666;44.350;9.222;2024-03-22T09:40:50;102098.44;;;15.61;100.00
32324;BME280;25666;44.350;9.222;2024-03-22T09:43:21;102105.84;;;15.65;100.00
32324;BME280;25666;44.350;9.222;2024-03-22T09:45:49;102106.28;;;15.67;100.00
32324;BME280;25666;44.350;9.222;2024-03-22T09:48:18;102105.38;;;15.75;100.00
32324;BME280;25666;44.350;9.222;2024-03-22T09:50:47;102107.69;;;15.61;100.00
32324;BME280;25666;44.350;9.222;2024-03-22T09:53:17;102103.84;;;15.66;100.00
32324;BME280;25666;44.350;9.222;2024-03-22T09:55:45;102107.00;;;15.64;100.00
32324;BME280;25666;44.350;9.222;2024-03-22T09:58:11;102101.56;;;15.35;100.00
32324;BME280;25666;44.350;9.222;2024-03-22T10:00:36;102112.22;;;15.41;100.00
32324;BME280;25666;44.350;9.222;2024-03-22T10:03:03;102116.41;;;15.35;100.00
32324;BME280;25666;44.350;9.222;2024-03-22T10:05:30;102114.69;;;15.31;100.00
32324;BME280;25666;44.350;9.222;2024-03-22T10:07:55;102116.19;;;15.28;100.00
32324;BME280;25666;44.350;9.222;2024-03-22T10:10:21;102111.06;;;15.30;100.00
32324;BME280;25666;44.350;9.222;2024-03-22T10:12:47;102110.22;;;15.42;100.00
32324;BME280;25666;44.350;9.222;2024-03-22T10:15:13;102111.41;;;15.41;100.00
32324;BME280;25666;44.350;9.222;2024-03-22T10:17:39;102104.06;;;15.48;100.00
32324;BME280;25666;44.350;9.222;2024-03-22T10:20:05;102109.66;;;15.36;100.00
32324;BME280;25666;44.350;9.222;2024-03-22T10:23:11;102102.19;;;15.40;100.00
32324;BME280;25666;44.350;9.222;2024-03-22T10:25:37;102107.78;;;15.40;100.00
32324;BME280;25666;44.350;9.222;2024-03-22T10:28:02;102098.09;;;15.38;100.00
32324;BME280;25666;44.350;9.222;2024-03-22T10:30:29;102101.09;;;15.33;100.00
32324;BME280;25666;44.350;9.222;2024-03-22T10:32:56;102102.97;;;15.29;100.00
32324;BME280;25666;44.350;9.222;2024-03-22T10:35:24;102094.09;;;15.39;100.00
32324;BME280;25666;44.350;9.222;2024-03-22T10:37:50;102093.88;;;15.44;100.00
32324;BME280;25666;44.350;9.222;2024-03-22T10:40:16;102092.34;;;15.46;100.00
32324;BME280;25666;44.350;9.222;2024-03-22T10:42:42;102092.25;;;15.43;100.00
32324;BME280;25666;44.350;9.222;2024-03-22T10:45:09;102086.06;;;15.37;100.00
32324;BME280;25666;44.350;9.222;2024-03-22T10:47:37;102091.31;;;15.51;100.00
32324;BME280;25666;44.350;9.222;2024-03-22T10:50:10;102090.16;;;15.64;100.00
32324;BME280;25666;44.350;9.222;2024-03-22T10:52:54;102084.06;;;15.74;100.00
32324;BME280;25666;44.350;9.222;2024-03-22T10:55:28;102092.81;;;15.73;100.00
32324;BME280;25666;44.350;9.222;2024-03-22T10:57:57;102084.28;;;15.81;100.00
32324;BME280;25666;44.350;9.222;2024-03-22T11:00:34;102087.22;;;15.85;100.00
32324;BME280;25666;44.350;9.222;2024-03-22T11:03:03;102089.53;;;15.83;100.00
32324;BME280;25666;44.350;9.222;2024-03-22T11:05:30;102080.34;;;15.58;100.00
32324;BME280;25666;44.350;9.222;2024-03-22T11:08:03;102081.38;;;15.78;100.00
32324;BME280;25666;44.350;9.222;2024-03-22T11:10:35;102076.59;;;15.78;100.00
32324;BME280;25666;44.350;9.222;2024-03-22T11:13:01;102080.88;;;15.76;100.00
32324;BME280;25666;44.350;9.222;2024-03-22T11:15:28;102076.00;;;15.85;100.00
32324;BME280;25666;44.350;9.222;2024-03-22T11:17:54;102083.44;;;15.93;100.00
32324;BME280;25666;44.350;9.222;2024-03-22T11:20:19;102070.69;;;15.95;100.00
32324;BME280;25666;44.350;9.222;2024-03-22T11:22:45;102066.22;;;15.94;100.00
32324;BME280;25666;44.350;9.222;2024-03-22T11:25:10;102064.25;;;15.95;100.00
32324;BME280;25666;44.350;9.222;2024-03-22T11:27:36;102067.38;;;16.05;100.00
32324;BME280;25666;44.350;9.222;2024-03-22T11:30:01;102056.59;;;16.07;100.00
32324;BME280;25666;44.350;9.222;2024-03-22T11:32:29;102049.72;;;16.05;100.00
32324;BME280;25666;44.350;9.222;2024-03-22T11:34:54;102054.56;;;16.20;100.00
32324;BME280;25666;44.350;9.222;2024-03-22T11:37:20;102053.41;;;16.21;100.00
32324;BME280;25666;44.350;9.222;2024-03-22T11:39:45;102057.59;;;16.27;100.00
32324;BME280;25666;44.350;9.222;2024-03-22T11:42:11;102048.00;;;16.28;100.00
32324;BME280;25666;44.350;9.222;2024-03-22T11:44:39;102039.31;;;16.33;100.00
32324;BME280;25666;44.350;9.222;2024-03-22T11:47:05;102037.03;;;16.39;100.00
32324;BME280;25666;44.350;9.222;2024-03-22T11:49:31;102033.63;;;16.45;100.00
32324;BME280;25666;44.350;9.222;2024-03-22T11:51:57;102041.28;;;16.60;100.00
32324;BME280;25666;44.350;9.222;2024-03-22T11:54:23;102024.63;;;16.68;100.00
32324;BME280;25666;44.350;9.222;2024-03-22T11:56:51;102024.91;;;16.78;100.00
32324;BME280;25666;44.350;9.222;2024-03-22T11:59:20;102025.38;;;16.80;100.00
32324;BME280;25666;44.350;9.222;2024-03-22T12:01:47;102022.00;;;16.75;100.00
32324;BME280;25666;44.350;9.222;2024-03-22T12:04:12;102022.34;;;16.73;100.00
32324;BME280;25666;44.350;9.222;2024-03-22T12:06:46;102019.72;;;16.65;100.00
32324;BME280;25666;44.350;9.222;2024-03-22T12:09:12;102021.28;;;16.62;100.00
32324;BME280;25666;44.350;9.222;2024-03-22T12:11:39;102016.09;;;16.64;100.00
32324;BME280;25666;44.350;9.222;2024-03-22T12:14:05;102010.97;;;16.54;100.00
32324;BME280;25666;44.350;9.222;2024-03-22T12:16:30;102003.25;;;16.51;100.00
32324;BME280;25666;44.350;9.222;2024-03-22T12:18:56;102008.81;;;16.47;100.00
32324;BME280;25666;44.350;9.222;2024-03-22T12:21:21;102006.78;;;16.48;100.00
32324;BME280;25666;44.350;9.222;2024-03-22T12:23:47;102000.00;;;16.49;100.00
32324;BME280;25666;44.350;9.222;2024-03-22T12:26:13;101992.66;;;16.44;100.00
32324;BME280;25666;44.350;9.222;2024-03-22T12:28:39;101997.47;;;16.44;100.00
32324;BME280;25666;44.350;9.222;2024-03-22T12:31:04;101995.63;;;16.51;100.00
32324;BME280;25666;44.350;9.222;2024-03-22T12:33:30;101983.22;;;16.52;100.00
32324;BME280;25666;44.350;9.222;2024-03-22T12:35:56;101989.31;;;16.54;100.00
32324;BME280;25666;44.350;9.222;2024-03-22T12:38:21;101988.03;;;16.52;100.00
32324;BME280;25666;44.350;9.222;2024-03-22T12:40:47;101977.47;;;16.61;100.00